createdAt,value
2019-06-07T00:02:01.213Z,10.90
2019-06-07T00:04:31.959Z,10.90
2019-06-07T00:07:02.748Z,10.60
2019-06-07T00:09:33.650Z,10.90
2019-06-07T00:12:04.842Z,10.80
2019-06-07T00:17:05.526Z,10.40
2019-06-07T00:19:36.356Z,10.80
2019-06-07T00:22:16.497Z,11.10
2019-06-07T00:24:39.338Z,10.60
2019-06-07T00:27:11.616Z,10.50
2019-06-07T00:29:42.840Z,10.20
2019-06-07T00:32:15.010Z,10.40
2019-06-07T00:34:45.698Z,10.10
2019-06-07T00:37:19.758Z,10.20
2019-06-07T00:42:23.967Z,10.20
2019-06-07T00:49:55.545Z,9.90
2019-06-07T00:57:28.381Z,10.10
2019-06-07T00:59:59.230Z,10.10
2019-06-07T01:05:01.759Z,9.70
2019-06-07T01:07:33.928Z,9.80
2019-06-07T01:15:04.716Z,9.60
2019-06-07T01:17:49.979Z,9.80
2019-06-07T01:20:08.273Z,9.70
2019-06-07T01:22:38.971Z,9.50
2019-06-07T01:27:40.304Z,9.60
2019-06-07T01:35:11.634Z,9.60
2019-06-07T01:37:42.134Z,9.10
2019-06-07T01:40:13.965Z,9.40
2019-06-07T01:45:19.464Z,9.30
2019-06-07T01:52:51.664Z,9.20
2019-06-07T01:55:24.942Z,9.10
2019-06-07T02:03:21.395Z,9.10
2019-06-07T02:05:51.125Z,8.60
2019-06-07T02:10:53.731Z,9.10
2019-06-07T02:13:27.829Z,9.10
2019-06-07T02:20:59.201Z,9.00
2019-06-07T02:26:01.529Z,9.00
2019-06-07T02:28:44.727Z,8.50
2019-06-07T02:31:04.728Z,8.70
2019-06-07T02:33:40.160Z,8.60
2019-06-07T02:36:07.562Z,8.50
2019-06-07T02:38:38.384Z,8.70
2019-06-07T02:41:09.500Z,8.80
2019-06-07T02:43:39.960Z,8.60
2019-06-07T02:46:31.946Z,9.00
2019-06-07T02:51:32.637Z,8.60
2019-06-07T02:53:59.175Z,8.60
2019-06-07T03:01:38.548Z,8.60
2019-06-07T03:04:05.458Z,8.30
2019-06-07T03:06:40.456Z,8.60
2019-06-07T03:11:42.122Z,8.50
2019-06-07T03:14:13.747Z,8.50
2019-06-07T03:16:52.997Z,8.50
2019-06-07T03:19:31.374Z,8.60
2019-06-07T03:22:04.759Z,8.70
2019-06-07T03:24:41.271Z,8.60
2019-06-07T03:27:34.107Z,8.70
2019-06-07T03:29:42.178Z,8.70
2019-06-07T03:32:13.123Z,9.00
2019-06-07T03:34:44.141Z,8.60
2019-06-07T03:37:15.066Z,8.90
2019-06-07T03:42:16.059Z,9.30
2019-06-07T03:47:16.422Z,9.40
2019-06-07T03:49:47.690Z,9.40
2019-06-07T03:52:18.666Z,9.40
2019-06-07T03:54:49.633Z,9.80
2019-06-07T03:57:21.789Z,9.70
2019-06-07T03:59:52.327Z,9.90
2019-06-07T04:04:52.717Z,10.10
2019-06-07T04:07:23.919Z,10.00
2019-06-07T04:09:57.125Z,10.20
2019-06-07T04:12:28.550Z,10.50
2019-06-07T04:15:00.323Z,11.20
2019-06-07T04:17:32.701Z,11.10
2019-06-07T04:20:03.507Z,11.40
2019-06-07T04:25:08.967Z,11.80
2019-06-07T04:27:41.046Z,12.00
2019-06-07T04:30:13.808Z,12.10
2019-06-07T04:35:15.713Z,12.70
2019-06-07T04:37:46.909Z,12.90
2019-06-07T04:40:17.679Z,12.60
2019-06-07T04:42:48.959Z,13.00
2019-06-07T04:45:33.765Z,13.30
2019-06-07T05:05:26.210Z,14.10
2019-06-07T05:07:56.859Z,14.70
2019-06-07T05:10:27.887Z,15.00
2019-06-07T05:12:58.863Z,15.20
2019-06-07T05:15:29.789Z,14.90
2019-06-07T05:18:00.389Z,15.50
2019-06-07T05:23:00.964Z,15.50
2019-06-07T05:25:33.585Z,15.00
2019-06-07T05:28:04.383Z,14.70
2019-06-07T05:31:07.839Z,14.70
2019-06-07T05:33:13.362Z,14.80
2019-06-07T05:35:44.449Z,14.80
2019-06-07T05:38:15.585Z,15.10
2019-06-07T05:43:26.615Z,15.00
2019-06-07T05:45:57.531Z,14.90
2019-06-07T05:50:58.226Z,15.30
2019-06-07T05:58:29.299Z,15.20
2019-06-07T06:01:41.057Z,15.50
2019-06-07T06:03:35.049Z,15.50
2019-06-07T06:06:05.884Z,15.40
2019-06-07T06:08:39.236Z,15.60
2019-06-07T06:16:10.982Z,15.90
2019-06-07T06:18:44.326Z,16.10
2019-06-07T06:21:19.653Z,15.90
2019-06-07T06:23:50.748Z,16.10
2019-06-07T06:26:20.762Z,16.20
2019-06-07T06:28:51.623Z,16.50
2019-06-07T06:31:22.398Z,16.40
2019-06-07T06:33:52.957Z,16.70
2019-06-07T06:36:23.696Z,16.60
2019-06-07T06:38:55.578Z,16.20
2019-06-07T06:41:27.800Z,16.60
2019-06-07T06:46:38.580Z,16.80
2019-06-07T06:49:00.552Z,16.40
2019-06-07T06:51:31.564Z,17.10
2019-06-07T06:54:02.435Z,16.90
2019-06-07T06:56:39.685Z,17.00
2019-06-07T06:59:37.124Z,17.50
2019-06-07T07:01:44.888Z,17.20
2019-06-07T07:04:15.659Z,17.20
2019-06-07T07:09:19.024Z,17.40
2019-06-07T07:12:06.344Z,17.60
2019-06-07T07:14:22.764Z,17.60
2019-06-07T07:19:25.181Z,17.70
2019-06-07T07:26:58.540Z,18.10
2019-06-07T07:29:29.015Z,18.30
2019-06-07T07:31:59.684Z,18.30
2019-06-07T07:34:35.516Z,18.20
2019-06-07T07:37:03.174Z,18.40
2019-06-07T07:39:33.854Z,18.40
2019-06-07T07:42:20.052Z,18.60
2019-06-07T07:44:37.891Z,18.80
2019-06-07T07:47:09.792Z,19.10
2019-06-07T07:49:40.547Z,19.20
2019-06-07T07:52:11.103Z,18.30
2019-06-07T07:57:11.730Z,18.80
2019-06-07T08:02:15.394Z,18.70
2019-06-07T08:05:20.651Z,19.20
2019-06-07T08:19:52.315Z,20.70
2019-06-07T08:22:24.124Z,20.80
2019-06-07T08:27:27.119Z,20.80
2019-06-07T08:30:15.778Z,21.10
2019-06-07T08:32:31.551Z,20.70
2019-06-07T08:35:06.512Z,21.00
2019-06-07T08:38:14.027Z,21.50
2019-06-07T08:40:09.104Z,21.10
2019-06-07T08:42:59.773Z,20.90
2019-06-07T08:45:16.694Z,20.90
2019-06-07T08:50:20.596Z,21.50
2019-06-07T08:52:54.802Z,21.50
